Newbiggin-by-the-Sea, United Kingdom
Current Conditions -  °F | °C
As of 2:20 PM on Sunday 25 Jan 2015 (Local Time) from EGNT Reporting Station
Few Clouds Few Clouds  
Wind Chill:   Ceiling: Unl
Heat Index:   Visibility: 6mi
Dew Point:   Wind: 14mph
Humidity: 82%   Direction: 260°W
Pressure: 30.12"   Gusts: NA
Location:  55.19°N, 1.51°W
Report Text: EGNT 251420Z 26012KT 9999 FEW015 09/06 Q1020
Loading
Personal Weather Stations






























Interactive Weather Map New forecast layout! Learn more

10-Day Weather Forecast

Advertisements
Track Severe Weather on mobile